TimeCDT,TemperatureF,Dew PointF,Humidity,Sea Level PressureIn,VisibilityMPH,Wind Direction,Wind SpeedMPH,Gust SpeedMPH,PrecipitationIn,Events,Conditions,WindDirDegrees,DateUTC
12:53 AM,69.1,61.0,75,29.91,10.0,SSE,11.5,-,N/A,,Mostly Cloudy,160,2013-10-29 05:53:00
1:53 AM,70.0,61.0,73,29.89,10.0,South,12.7,-,N/A,,Overcast,170,2013-10-29 06:53:00
2:53 AM,69.1,61.0,75,29.88,10.0,South,12.7,-,N/A,,Mostly Cloudy,180,2013-10-29 07:53:00
3:53 AM,68.0,60.1,76,29.87,10.0,South,10.4,-,N/A,,Clear,170,2013-10-29 08:53:00
4:53 AM,66.0,60.1,81,29.87,10.0,South,11.5,-,N/A,,Clear,170,2013-10-29 09:53:00
5:53 AM,64.9,60.1,84,29.88,10.0,South,12.7,-,N/A,,Clear,180,2013-10-29 10:53:00
6:53 AM,64.9,60.1,84,29.90,10.0,South,10.4,-,N/A,,Clear,180,2013-10-29 11:53:00
7:53 AM,64.9,61.0,87,29.89,10.0,South,12.7,-,N/A,,Clear,180,2013-10-29 12:53:00
8:53 AM,69.1,62.1,78,29.90,10.0,South,12.7,-,N/A,,Clear,190,2013-10-29 13:53:00
9:53 AM,73.0,63.0,71,29.91,10.0,South,17.3,-,N/A,,Clear,190,2013-10-29 14:53:00
10:53 AM,77.0,63.0,62,29.91,10.0,SW,20.7,-,N/A,,Clear,220,2013-10-29 15:53:00
11:53 AM,79.0,61.0,54,29.90,10.0,SSW,21.9,29.9,N/A,,Clear,210,2013-10-29 16:53:00
12:53 PM,82.0,60.1,47,29.88,10.0,SW,20.7,27.6,N/A,,Clear,220,2013-10-29 17:53:00
1:53 PM,82.0,59.0,45,29.86,10.0,SSW,21.9,-,N/A,,Clear,210,2013-10-29 18:53:00
2:53 PM,82.0,59.0,45,29.85,10.0,SW,13.8,-,N/A,,Clear,220,2013-10-29 19:53:00
3:53 PM,82.9,55.9,39,29.82,10.0,SSW,11.5,-,N/A,,Clear,200,2013-10-29 20:53:00
4:53 PM,82.9,57.0,41,29.83,10.0,South,19.6,-,N/A,,Clear,190,2013-10-29 21:53:00
5:53 PM,82.0,57.9,44,29.83,10.0,SSW,17.3,-,N/A,,Clear,200,2013-10-29 22:53:00
6:53 PM,78.1,59.0,52,29.86,10.0,South,10.4,-,N/A,,Clear,180,2013-10-29 23:53:00
7:53 PM,73.0,59.0,61,29.88,10.0,SSE,5.8,-,N/A,,Clear,150,2013-10-30 00:53:00
8:53 PM,73.9,61.0,64,29.88,10.0,South,11.5,-,N/A,,Clear,190,2013-10-30 01:53:00
9:53 PM,70.0,60.1,71,29.88,10.0,SSE,8.1,-,N/A,,Partly Cloudy,160,2013-10-30 02:53:00
10:53 PM,71.1,61.0,70,29.89,10.0,South,12.7,-,N/A,,Scattered Clouds,180,2013-10-30 03:53:00
11:53 PM,71.1,62.1,73,29.88,10.0,South,13.8,-,N/A,,Scattered Clouds,180,2013-10-30 04:53:00